Time;durP1;ratioP1;P1;durP2;ratioP2;P2;SDS_P1;SDS_P2;PMS_P1;PMS_P2;Temp;Humidity;BMP_temperature;BMP_pressure;BME280_temperature;BME280_humidity;BME280_pressure;Samples;Min_cycle;Max_cycle;Signal;HPM_P1;HPM_P2
2021/12/02 00:03:46;;;;;;;6.77;3.73;;;13.60;99.90;;;;;;10413451;28;20286;-93
2021/12/02 00:08:51;;;;;;;6.30;4.10;;;14.00;99.90;;;;;;10430852;28;20199;-93
2021/12/02 00:13:56;;;;;;;5.27;3.70;;;14.20;99.90;;;;;;10448163;28;20250;-94
2021/12/02 00:24:24;;;;;;;4.87;3.60;;;14.20;96.60;;;;;;10445418;28;20240;-91
2021/12/02 00:29:29;;;;;;;10.90;4.73;;;14.10;99.90;;;;;;10421993;28;20228;-93
2021/12/02 00:34:32;;;;;;;5.13;3.83;;;14.10;99.90;;;;;;10426046;28;20300;-93
2021/12/02 00:39:35;;;;;;;6.23;3.30;;;14.10;99.90;;;;;;10414802;28;20260;-92
2021/12/02 00:44:38;;;;;;;3.37;2.80;;;14.20;99.90;;;;;;10431481;28;20232;-93
2021/12/02 00:49:44;;;;;;;5.20;3.23;;;14.20;99.90;;;;;;10431090;28;20268;-93
2021/12/02 00:54:47;;;;;;;3.23;2.93;;;14.20;99.90;;;;;;10415154;28;20272;-93
2021/12/02 00:59:52;;;;;;;4.40;2.90;;;14.30;99.90;;;;;;10431883;28;20209;-92
2021/12/02 01:04:55;;;;;;;5.87;3.10;;;14.40;99.90;;;;;;10431116;28;20234;-93
2021/12/02 07:24:35;;;;;;;1.83;1.00;;;13.50;68.20;;;;;;10557833;22;1333670;-87
2021/12/02 07:29:41;;;;;;;1.37;0.93;;;13.70;68.30;;;;;;10580962;27;20201;-88
2021/12/02 07:34:45;;;;;;;1.00;0.87;;;13.90;67.80;;;;;;10568864;28;20295;-86
2021/12/02 07:39:48;;;;;;;4.50;1.00;;;14.00;68.10;;;;;;10576242;28;20751;-86
2021/12/02 07:45:00;;;;;;;0.77;0.47;;;13.90;68.60;;;;;;10583848;27;20278;-86
2021/12/02 07:50:05;;;;;;;4.97;1.10;;;14.00;67.70;;;;;;10601678;27;20286;-86
2021/12/02 07:55:09;;;;;;;1.47;0.70;;;14.10;67.90;;;;;;10601630;27;20223;-86
2021/12/02 08:00:14;;;;;;;1.83;0.80;;;14.10;67.80;;;;;;10561094;27;20201;-85
2021/12/02 08:05:17;;;;;;;3.23;1.00;;;14.10;67.70;;;;;;10585764;27;20253;-87
2021/12/02 08:10:20;;;;;;;2.10;0.77;;;14.10;67.60;;;;;;10598904;27;20273;-86
2021/12/02 08:31:04;;;;;;;2.23;0.40;;;14.00;67.20;;;;;;10455528;28;21164;-87
2021/12/02 08:36:07;;;;;;;2.10;1.47;;;14.10;67.60;;;;;;10482496;28;20234;-87
2021/12/02 08:41:12;;;;;;;1.37;0.53;;;14.00;67.70;;;;;;10481752;28;20293;-87
2021/12/02 08:46:17;;;;;;;1.60;0.73;;;13.80;68.10;;;;;;10463898;28;20243;-87
2021/12/02 08:51:20;;;;;;;1.63;0.97;;;13.90;67.80;;;;;;10463803;28;20256;-87
2021/12/02 08:56:24;;;;;;;2.33;0.83;;;13.80;67.70;;;;;;10462198;28;20249;-89
2021/12/02 09:01:30;;;;;;;2.97;0.87;;;14.00;67.50;;;;;;10477340;28;20213;-88
2021/12/02 09:12:50;;;;;;;2.47;0.50;;;14.00;66.90;;;;;;10480571;28;20227;-87
2021/12/02 09:17:52;;;;;;;3.00;0.97;;;14.10;67.10;;;;;;10479217;28;20662;-87
2021/12/02 09:22:55;;;;;;;1.43;0.83;;;14.20;66.80;;;;;;10475732;28;20230;-87
2021/12/02 09:35:37;;;;;;;2.60;0.87;;;14.10;67.00;;;;;;10413728;28;20253;-87
2021/12/02 09:40:41;;;;;;;1.70;0.80;;;14.10;66.90;;;;;;10411305;28;20268;-86
2021/12/02 09:45:44;;;;;;;1.57;0.80;;;14.00;66.20;;;;;;10445665;28;20257;-88
2021/12/02 09:51:01;;;;;;;1.20;0.77;;;14.20;66.50;;;;;;10450536;28;20240;-88
2021/12/02 09:56:32;;;;;;;3.27;0.80;;;14.30;66.30;;;;;;10450888;28;20260;-88
2021/12/02 10:01:40;;;;;;;2.07;0.90;;;14.30;66.20;;;;;;10449562;28;20248;-88
2021/12/02 10:06:45;;;;;;;3.40;0.93;;;14.30;65.50;;;;;;10437338;23;20328;-87
2021/12/02 10:17:08;;;;;;;2.57;1.00;;;14.10;65.40;;;;;;10363141;28;20301;-85
2021/12/02 10:22:12;;;;;;;2.77;0.70;;;14.20;64.30;;;;;;10347321;28;20288;-86
2021/12/02 10:27:15;;;;;;;1.37;0.50;;;14.20;64.00;;;;;;10346594;28;20234;-86
2021/12/02 10:32:29;;;;;;;1.87;0.77;;;14.20;63.70;;;;;;10346416;28;20309;-90
2021/12/02 10:37:39;;;;;;;4.00;0.80;;;14.30;63.40;;;;;;10348953;28;20260;-90
2021/12/02 10:42:46;;;;;;;2.97;1.00;;;14.10;63.30;;;;;;10348792;28;20271;-89
2021/12/02 10:47:51;;;;;;;2.40;0.90;;;14.20;62.70;;;;;;10365810;28;20279;-90
2021/12/02 10:53:03;;;;;;;1.63;0.50;;;14.20;62.40;;;;;;10353200;28;20814;-90
2021/12/02 10:58:08;;;;;;;1.03;0.63;;;14.20;62.00;;;;;;10349027;28;20309;-91
2021/12/02 11:03:14;;;;;;;0.90;0.50;;;14.20;62.00;;;;;;10346423;28;20229;-90
2021/12/02 11:08:18;;;;;;;1.03;0.50;;;14.10;61.50;;;;;;10348425;28;20245;-90
2021/12/02 11:13:26;;;;;;;1.37;0.70;;;13.80;61.60;;;;;;10346921;28;20225;-91
2021/12/02 11:18:33;;;;;;;1.03;0.60;;;14.00;61.70;;;;;;10377419;28;20288;-86
2021/12/02 11:23:42;;;;;;;2.00;0.73;;;14.00;60.20;;;;;;10336037;28;20236;-91
2021/12/02 11:28:45;;;;;;;1.63;0.70;;;13.70;58.90;;;;;;10348675;28;20273;-91
2021/12/02 11:33:52;;;;;;;0.60;0.50;;;14.00;61.00;;;;;;10348737;28;20247;-90
2021/12/02 11:38:58;;;;;;;1.13;0.50;;;14.00;61.10;;;;;;10348804;28;20339;-92
2021/12/02 11:44:02;;;;;;;3.33;0.93;;;14.20;60.80;;;;;;10347919;28;20258;-90
2021/12/02 11:49:05;;;;;;;1.20;0.70;;;14.10;60.70;;;;;;10366354;28;20245;-87
2021/12/02 11:54:09;;;;;;;1.87;0.43;;;14.00;61.00;;;;;;10349239;28;20260;-87
2021/12/02 11:59:11;;;;;;;1.20;0.60;;;14.00;61.20;;;;;;10346560;28;20729;-85
2021/12/02 12:04:15;;;;;;;1.37;0.50;;;13.90;61.10;;;;;;10361703;28;20686;-86
2021/12/02 12:09:20;;;;;;;1.13;0.70;;;13.90;61.00;;;;;;10345879;28;20242;-86
2021/12/02 12:14:41;;;;;;;1.57;0.57;;;14.00;61.10;;;;;;10343481;28;20677;-86
2021/12/02 12:19:50;;;;;;;1.50;0.80;;;14.00;60.90;;;;;;10347650;28;20268;-87
2021/12/02 12:24:55;;;;;;;3.70;0.90;;;14.10;60.70;;;;;;10347989;28;20229;-87
2021/12/02 12:30:05;;;;;;;1.83;0.60;;;14.20;60.60;;;;;;10346875;28;20221;-86
2021/12/02 12:36:14;;;;;;;1.30;0.70;;;14.20;60.50;;;;;;10350565;28;20222;-86
2021/12/02 12:41:13;;;;;;;3.23;0.60;;;14.20;60.40;;;;;;10343620;28;20642;-86
2021/12/02 12:46:23;;;;;;;1.50;0.60;;;14.10;60.50;;;;;;10340990;28;20671;-86
2021/12/02 12:51:30;;;;;;;1.80;0.70;;;14.10;60.40;;;;;;10327576;28;20251;-87
2021/12/02 12:56:38;;;;;;;1.43;0.77;;;14.10;60.30;;;;;;10364513;28;20269;-88
2021/12/02 13:01:54;;;;;;;0.47;0.47;;;14.20;60.40;;;;;;10346184;28;20238;-88
2021/12/02 13:07:08;;;;;;;2.37;0.67;;;14.20;60.00;;;;;;10369668;28;20337;-87
2021/12/02 13:12:12;;;;;;;2.67;0.70;;;14.20;60.30;;;;;;10369381;28;20690;-87
2021/12/02 13:17:53;;;;;;;1.30;0.83;;;14.20;60.10;;;;;;10369900;28;20686;-86
2021/12/02 13:23:14;;;;;;;1.00;0.47;;;14.30;60.00;;;;;;10370994;28;20230;-86
2021/12/02 13:28:25;;;;;;;1.50;0.80;;;14.20;60.00;;;;;;10336025;28;20244;-88
2021/12/02 13:33:37;;;;;;;3.20;0.87;;;14.30;59.80;;;;;;10350868;28;20271;-87
2021/12/02 13:38:43;;;;;;;1.03;0.83;;;14.30;59.70;;;;;;10352936;28;20272;-87
2021/12/02 13:44:01;;;;;;;2.13;0.90;;;14.20;59.30;;;;;;10351472;28;20298;-86
2021/12/02 13:49:07;;;;;;;0.97;0.80;;;14.20;59.70;;;;;;10379228;28;20233;-86
2021/12/02 13:54:18;;;;;;;1.00;0.77;;;14.20;59.60;;;;;;10361330;28;20704;-87
2021/12/02 13:59:24;;;;;;;1.73;0.97;;;14.10;59.60;;;;;;10370056;28;20256;-87
2021/12/02 14:04:27;;;;;;;2.90;0.80;;;14.20;59.60;;;;;;10349061;28;20273;-87
2021/12/02 14:09:43;;;;;;;2.20;0.80;;;14.20;59.50;;;;;;10353302;28;20262;-87
2021/12/02 14:15:00;;;;;;;2.00;0.90;;;14.10;59.50;;;;;;10359464;28;20294;-88
2021/12/02 14:20:10;;;;;;;1.10;0.90;;;13.90;59.70;;;;;;10347827;28;20254;-87
2021/12/02 14:25:13;;;;;;;1.93;1.00;;;14.00;59.70;;;;;;10348406;28;20792;-86
2021/12/02 14:30:18;;;;;;;1.40;0.93;;;14.00;59.90;;;;;;10369520;28;20248;-88
2021/12/02 14:35:21;;;;;;;1.87;0.77;;;13.90;60.10;;;;;;10367405;28;20218;-89
2021/12/02 14:40:47;;;;;;;2.07;1.27;;;13.80;60.00;;;;;;10350541;28;20362;-88
2021/12/02 14:46:09;;;;;;;1.17;0.70;;;13.90;59.90;;;;;;10370809;28;20226;-86
2021/12/02 14:51:15;;;;;;;1.07;0.80;;;13.90;59.40;;;;;;10348523;28;20233;-89
2021/12/02 14:56:27;;;;;;;3.87;0.97;;;13.90;59.90;;;;;;10385890;28;20229;-88
2021/12/02 15:01:30;;;;;;;2.13;0.93;;;13.60;60.50;;;;;;10352076;28;20660;-90
2021/12/02 15:06:35;;;;;;;2.30;1.10;;;13.90;59.80;;;;;;10367688;28;20275;-88
2021/12/02 15:11:38;;;;;;;3.33;0.90;;;14.00;59.90;;;;;;10371178;28;20811;-87
2021/12/02 15:16:54;;;;;;;3.23;1.00;;;14.00;59.60;;;;;;10334664;28;20239;-87
2021/12/02 15:21:57;;;;;;;2.70;0.90;;;14.10;59.60;;;;;;10369820;28;20240;-89
2021/12/02 15:27:11;;;;;;;2.40;1.10;;;14.10;59.70;;;;;;10388063;28;20282;-87
2021/12/02 15:32:14;;;;;;;2.13;0.87;;;14.10;59.60;;;;;;10366371;28;20261;-86
2021/12/02 15:37:17;;;;;;;3.77;1.10;;;14.20;59.30;;;;;;10368249;28;20519;-88
2021/12/02 15:42:21;;;;;;;3.27;1.03;;;11.80;56.30;;;;;;10354041;28;20196;-87
2021/12/02 15:47:25;;;;;;;2.13;1.00;;;12.80;54.60;;;;;;10349250;28;20348;-88
2021/12/02 15:52:31;;;;;;;1.60;1.00;;;13.20;53.70;;;;;;10363737;28;20228;-87
2021/12/02 15:57:36;;;;;;;2.03;1.57;;;13.70;53.40;;;;;;10362212;28;20382;-89
2021/12/02 16:02:48;;;;;;;3.10;1.43;;;12.20;55.60;;;;;;10337896;28;20208;-88
2021/12/02 16:08:41;;;;;;;2.73;1.40;;;12.80;55.80;;;;;;10352401;28;20251;-89
2021/12/02 16:13:14;;;;;;;3.47;1.33;;;13.20;56.60;;;;;;10343819;28;20201;-88
2021/12/02 16:18:17;;;;;;;1.40;1.00;;;13.30;58.40;;;;;;10361098;28;20243;-89
2021/12/02 16:23:20;;;;;;;2.53;1.30;;;13.50;58.40;;;;;;10383409;28;20635;-86
2021/12/02 16:28:23;;;;;;;1.83;1.50;;;13.60;58.80;;;;;;10373737;28;20225;-85
2021/12/02 16:33:26;;;;;;;1.93;1.37;;;13.80;59.00;;;;;;10349995;28;20255;-85
2021/12/02 16:38:29;;;;;;;2.70;1.40;;;13.80;59.10;;;;;;10363747;28;20396;-88
2021/12/02 16:43:36;;;;;;;4.30;1.50;;;14.00;59.20;;;;;;10380197;28;20204;-87
2021/12/02 16:48:41;;;;;;;2.37;1.07;;;14.00;59.30;;;;;;10362259;28;20281;-88
2021/12/02 16:53:44;;;;;;;2.70;1.53;;;14.00;58.70;;;;;;10390928;28;20209;-88
2021/12/02 16:58:47;;;;;;;6.50;2.00;;;14.00;59.70;;;;;;10025947;28;10000277;-88
2021/12/02 17:03:54;;;;;;;3.20;1.70;;;12.30;55.60;;;;;;10398962;28;20201;-88
2021/12/02 17:09:00;;;;;;;4.40;1.50;;;12.70;56.70;;;;;;10398550;28;20291;-88
2021/12/02 17:14:03;;;;;;;2.87;1.53;;;13.30;56.40;;;;;;10401287;28;20606;-88
2021/12/02 17:19:08;;;;;;;2.97;2.03;;;13.50;56.70;;;;;;10397457;28;20230;-88
2021/12/02 17:24:11;;;;;;;3.77;2.07;;;13.60;56.80;;;;;;10411367;28;20233;-87
2021/12/02 17:29:15;;;;;;;2.37;1.33;;;13.70;56.40;;;;;;10395467;28;20199;-87
2021/12/02 17:34:18;;;;;;;3.13;1.77;;;13.70;57.40;;;;;;10382785;28;20197;-87
2021/12/02 17:39:24;;;;;;;2.63;1.50;;;13.90;57.60;;;;;;10362372;28;20227;-87
2021/12/02 17:44:27;;;;;;;2.87;1.53;;;13.70;58.10;;;;;;10354223;28;20225;-87
2021/12/02 17:49:30;;;;;;;2.47;1.33;;;13.80;58.40;;;;;;10365526;28;20233;-87
2021/12/02 17:54:32;;;;;;;1.80;1.40;;;14.00;58.20;;;;;;10381842;28;20703;-88
2021/12/02 17:59:35;;;;;;;2.80;1.60;;;14.00;58.10;;;;;;10375257;28;20298;-87
2021/12/02 18:04:38;;;;;;;2.37;1.23;;;14.00;58.50;;;;;;10347834;28;20688;-88
2021/12/02 18:09:41;;;;;;;2.47;1.33;;;14.10;58.50;;;;;;10387164;28;20228;-86
2021/12/02 18:14:44;;;;;;;2.73;1.50;;;14.20;58.40;;;;;;10345241;28;20223;-90
2021/12/02 18:19:47;;;;;;;2.33;1.40;;;14.20;58.60;;;;;;10364628;28;20245;-86
2021/12/02 18:24:52;;;;;;;1.93;1.50;;;14.00;59.10;;;;;;10357251;28;20228;-86
2021/12/02 18:29:55;;;;;;;3.60;2.13;;;14.20;58.70;;;;;;10386565;28;20219;-92
2021/12/02 18:34:59;;;;;;;1.77;1.07;;;14.10;57.80;;;;;;10368356;28;20271;-92
2021/12/02 18:40:03;;;;;;;1.83;1.47;;;14.30;58.80;;;;;;10382938;28;20239;-93
2021/12/02 18:45:07;;;;;;;1.93;1.30;;;14.00;59.10;;;;;;10375691;28;20237;-92
2021/12/02 18:50:12;;;;;;;2.27;1.33;;;14.20;59.20;;;;;;10353854;28;20238;-93
2021/12/02 18:55:15;;;;;;;2.70;1.50;;;14.20;59.00;;;;;;10381213;28;20398;-92
2021/12/02 19:00:25;;;;;;;2.67;1.40;;;14.20;58.90;;;;;;10355059;28;20238;-91
2021/12/02 19:05:31;;;;;;;3.13;1.10;;;14.00;58.20;;;;;;10368171;28;20260;-88
2021/12/02 19:26:26;;;;;;;2.80;1.50;;;6.00;75.20;;;;;;10344796;28;20275;-86
2021/12/02 19:31:29;;;;;;;1.90;1.10;;;9.30;81.40;;;;;;10367035;28;20281;-86
2021/12/02 19:36:32;;;;;;;2.53;1.50;;;12.10;70.70;;;;;;10380812;28;20201;-86
2021/12/02 19:41:36;;;;;;;2.17;0.80;;;13.10;66.90;;;;;;10390109;28;20602;-88
2021/12/02 19:46:38;;;;;;;2.07;1.20;;;13.60;64.90;;;;;;10362644;28;20271;-89
2021/12/02 19:51:41;;;;;;;1.93;0.90;;;13.70;64.20;;;;;;10379601;28;20229;-89
2021/12/02 19:56:45;;;;;;;2.13;1.00;;;13.80;63.70;;;;;;10360626;28;20285;-91
2021/12/02 20:01:50;;;;;;;2.90;1.20;;;13.70;63.70;;;;;;10365245;28;20567;-91
2021/12/02 20:06:53;;;;;;;3.83;1.57;;;13.60;63.40;;;;;;10366045;28;20243;-86
2021/12/02 20:11:55;;;;;;;2.07;1.53;;;13.70;63.50;;;;;;10377049;28;20283;-88
2021/12/02 20:17:02;;;;;;;2.60;1.20;;;13.60;63.50;;;;;;10350411;28;20729;-87
2021/12/02 20:22:06;;;;;;;2.57;1.30;;;13.60;63.40;;;;;;10356628;23;20257;-81
2021/12/02 20:27:08;;;;;;;1.40;0.90;;;13.70;63.20;;;;;;10364999;28;20284;-82
2021/12/02 20:32:11;;;;;;;1.93;1.50;;;13.80;63.10;;;;;;10347325;28;20645;-82
2021/12/02 20:37:14;;;;;;;3.20;1.10;;;13.80;63.00;;;;;;10353006;28;20230;-82
2021/12/02 20:42:17;;;;;;;2.27;1.37;;;13.90;62.70;;;;;;10349111;28;20257;-82
2021/12/02 20:47:40;;;;;;;1.87;1.33;;;14.00;62.50;;;;;;10335821;28;20239;-82
2021/12/02 20:52:43;;;;;;;2.63;1.50;;;14.00;62.40;;;;;;10349869;28;20305;-81
2021/12/02 20:57:46;;;;;;;1.07;0.87;;;14.00;62.40;;;;;;10357209;28;20285;-81
2021/12/02 21:02:48;;;;;;;1.90;1.17;;;14.00;62.40;;;;;;10319956;28;20247;-81
2021/12/02 21:07:52;;;;;;;1.87;1.03;;;13.90;62.30;;;;;;10359411;28;20238;-82
2021/12/02 21:12:59;;;;;;;2.00;1.10;;;13.90;62.60;;;;;;10359455;28;20280;-81
2021/12/02 21:18:02;;;;;;;1.23;0.97;;;13.80;62.80;;;;;;10359566;28;20288;-81
2021/12/02 21:23:08;;;;;;;1.53;1.13;;;13.90;62.80;;;;;;10357100;28;20253;-81
2021/12/02 21:28:11;;;;;;;4.60;1.40;;;13.90;62.70;;;;;;10390913;28;20282;-81
2021/12/02 21:33:24;;;;;;;2.80;1.20;;;13.80;62.90;;;;;;10391501;28;20243;-82
2021/12/02 21:38:27;;;;;;;2.43;1.50;;;13.90;62.50;;;;;;10366012;28;20230;-82
2021/12/02 21:43:32;;;;;;;2.73;1.60;;;13.90;62.60;;;;;;10358572;28;20740;-82
2021/12/02 21:48:35;;;;;;;3.87;2.17;;;14.00;62.30;;;;;;10359063;28;20246;-82
2021/12/02 21:53:38;;;;;;;2.53;1.33;;;14.00;62.40;;;;;;10362585;28;20290;-81
2021/12/02 21:58:40;;;;;;;2.93;1.87;;;14.00;62.20;;;;;;10331527;28;20221;-81
2021/12/02 22:03:43;;;;;;;2.20;1.70;;;13.90;62.60;;;;;;10330177;28;20266;-81
2021/12/02 22:08:47;;;;;;;3.77;1.70;;;13.60;62.30;;;;;;10348410;28;20480;-82
2021/12/02 22:13:50;;;;;;;4.67;1.50;;;13.90;62.90;;;;;;10348690;28;20719;-81
2021/12/02 22:18:53;;;;;;;2.73;1.50;;;13.90;62.90;;;;;;10369302;28;20282;-81
2021/12/02 22:23:55;;;;;;;2.47;1.37;;;13.90;62.90;;;;;;10339020;28;20239;-82
2021/12/02 22:28:58;;;;;;;2.17;1.50;;;13.90;63.00;;;;;;10334485;28;20281;-81
2021/12/02 22:34:02;;;;;;;3.03;1.70;;;13.70;63.70;;;;;;10370803;28;20273;-81
2021/12/02 22:39:10;;;;;;;1.97;1.47;;;13.90;63.30;;;;;;10368923;28;20222;-82
2021/12/02 22:44:13;;;;;;;2.83;1.77;;;13.90;63.40;;;;;;10370078;28;20253;-81
2021/12/02 22:49:16;;;;;;;2.10;1.40;;;13.80;63.60;;;;;;10370209;28;20289;-82
2021/12/02 22:54:19;;;;;;;4.07;1.90;;;13.80;63.20;;;;;;10368161;28;20230;-82
2021/12/02 22:59:21;;;;;;;3.60;1.50;;;13.70;64.00;;;;;;10369192;28;20267;-82
2021/12/02 23:04:24;;;;;;;5.57;2.03;;;13.80;64.10;;;;;;10366304;28;20268;-82
2021/12/02 23:09:27;;;;;;;2.93;1.47;;;13.50;64.00;;;;;;10366179;28;20225;-82
2021/12/02 23:14:30;;;;;;;3.67;1.60;;;12.90;64.60;;;;;;10366979;28;20234;-82
2021/12/02 23:19:33;;;;;;;1.90;1.50;;;12.80;66.80;;;;;;10365885;28;20304;-82
2021/12/02 23:24:40;;;;;;;2.40;1.63;;;13.50;65.30;;;;;;10342150;28;20232;-82
2021/12/02 23:29:44;;;;;;;2.17;1.60;;;13.50;65.10;;;;;;10348052;28;20275;-82
2021/12/02 23:34:47;;;;;;;1.90;1.50;;;13.40;65.10;;;;;;10365176;28;20282;-82
2021/12/02 23:39:49;;;;;;;2.27;1.33;;;12.90;66.40;;;;;;10349350;28;20308;-82
2021/12/02 23:44:52;;;;;;;2.23;1.60;;;13.30;65.90;;;;;;10363955;28;20229;-81
2021/12/02 23:49:54;;;;;;;2.73;1.87;;;13.40;64.60;;;;;;10365433;28;20219;-82
2021/12/02 23:54:57;;;;;;;1.73;1.40;;;13.50;65.30;;;;;;10363852;28;20752;-82
